sensor_id;sensor_type;location;lat;lon;timestamp;pressure;altitude;pressure_sealevel;temperature;humidity
19594;BME280;9944;48.240;16.478;2023-03-14T00:02:45;98110.91;;;9.34;56.20
19594;BME280;9944;48.240;16.478;2023-03-14T00:06:49;98111.84;;;9.30;56.48
19594;BME280;9944;48.240;16.478;2023-03-14T00:10:53;98120.78;;;9.24;56.54
19594;BME280;9944;48.240;16.478;2023-03-14T00:14:56;98112.09;;;9.21;56.70
19594;BME280;9944;48.240;16.478;2023-03-14T00:18:59;98097.22;;;9.20;57.09
19594;BME280;9944;48.240;16.478;2023-03-14T00:23:03;98096.34;;;9.19;56.83
19594;BME280;9944;48.240;16.478;2023-03-14T00:27:07;98084.16;;;9.17;56.95
19594;BME280;9944;48.240;16.478;2023-03-14T00:31:14;98080.72;;;9.13;57.17
19594;BME280;9944;48.240;16.478;2023-03-14T00:35:18;98073.78;;;9.09;57.44
19594;BME280;9944;48.240;16.478;2023-03-14T00:39:21;98070.34;;;9.07;57.24
19594;BME280;9944;48.240;16.478;2023-03-14T00:43:26;98063.38;;;9.06;57.46
19594;BME280;9944;48.240;16.478;2023-03-14T00:47:29;98052.84;;;9.06;57.40
19594;BME280;9944;48.240;16.478;2023-03-14T00:51:32;98055.56;;;9.01;57.51
19594;BME280;9944;48.240;16.478;2023-03-14T00:55:36;98056.44;;;9.02;57.18
19594;BME280;9944;48.240;16.478;2023-03-14T00:59:41;98060.06;;;8.98;57.90
19594;BME280;9944;48.240;16.478;2023-03-14T01:03:44;98044.34;;;8.95;58.08
19594;BME280;9944;48.240;16.478;2023-03-14T01:07:50;98030.38;;;8.92;58.15
19594;BME280;9944;48.240;16.478;2023-03-14T01:11:53;98027.78;;;8.91;58.12
19594;BME280;9944;48.240;16.478;2023-03-14T01:16:02;98012.00;;;8.89;58.09
19594;BME280;9944;48.240;16.478;2023-03-14T01:20:09;98008.63;;;8.84;58.28
19594;BME280;9944;48.240;16.478;2023-03-14T01:24:13;98010.44;;;8.82;58.17
19594;BME280;9944;48.240;16.478;2023-03-14T01:28:16;97993.84;;;8.80;58.23
19594;BME280;9944;48.240;16.478;2023-03-14T01:32:21;98001.81;;;8.77;58.53
19594;BME280;9944;48.240;16.478;2023-03-14T01:36:26;97987.09;;;8.70;58.55
19594;BME280;9944;48.240;16.478;2023-03-14T01:40:41;97993.31;;;8.66;58.57
19594;BME280;9944;48.240;16.478;2023-03-14T01:44:51;97990.66;;;8.67;58.61
19594;BME280;9944;48.240;16.478;2023-03-14T01:49:01;97979.28;;;8.67;58.89
19594;BME280;9944;48.240;16.478;2023-03-14T01:53:07;97986.34;;;8.65;58.99
19594;BME280;9944;48.240;16.478;2023-03-14T01:57:14;97987.22;;;8.64;59.14
19594;BME280;9944;48.240;16.478;2023-03-14T02:01:21;97985.59;;;8.60;58.86
19594;BME280;9944;48.240;16.478;2023-03-14T02:05:30;97990.06;;;8.56;58.75
19594;BME280;9944;48.240;16.478;2023-03-14T02:09:43;97996.34;;;8.50;59.03
19594;BME280;9944;48.240;16.478;2023-03-14T02:13:55;98010.53;;;8.43;58.78
19594;BME280;9944;48.240;16.478;2023-03-14T02:18:22;98001.09;;;8.34;58.81
19594;BME280;9944;48.240;16.478;2023-03-14T02:22:55;97988.19;;;8.24;59.04
19594;BME280;9944;48.240;16.478;2023-03-14T02:27:05;98000.72;;;8.12;59.45
19594;BME280;9944;48.240;16.478;2023-03-14T02:31:11;98003.44;;;8.08;59.88
19594;BME280;9944;48.240;16.478;2023-03-14T02:35:18;97998.34;;;8.02;60.21
19594;BME280;9944;48.240;16.478;2023-03-14T02:39:29;98005.66;;;7.87;60.27
19594;BME280;9944;48.240;16.478;2023-03-14T02:43:35;98010.16;;;7.80;60.90
19594;BME280;9944;48.240;16.478;2023-03-14T02:47:46;98023.38;;;7.77;61.28
19594;BME280;9944;48.240;16.478;2023-03-14T02:51:50;98038.28;;;7.75;61.59
19594;BME280;9944;48.240;16.478;2023-03-14T02:55:53;98047.13;;;7.71;61.28
19594;BME280;9944;48.240;16.478;2023-03-14T02:59:59;98036.75;;;7.65;61.57
19594;BME280;9944;48.240;16.478;2023-03-14T03:04:07;98056.09;;;7.61;61.46
19594;BME280;9944;48.240;16.478;2023-03-14T03:08:10;98066.78;;;7.52;61.37
19594;BME280;9944;48.240;16.478;2023-03-14T03:12:14;98070.41;;;7.46;61.31
19594;BME280;9944;48.240;16.478;2023-03-14T03:16:20;98069.72;;;7.36;61.30
19594;BME280;9944;48.240;16.478;2023-03-14T03:20:23;98098.75;;;7.27;61.31
19594;BME280;9944;48.240;16.478;2023-03-14T03:24:27;98123.53;;;7.11;61.65
19594;BME280;9944;48.240;16.478;2023-03-14T03:28:30;98106.19;;;7.00;62.21
19594;BME280;9944;48.240;16.478;2023-03-14T03:32:35;98121.94;;;7.00;62.62
19594;BME280;9944;48.240;16.478;2023-03-14T03:36:40;98129.81;;;7.00;62.73
19594;BME280;9944;48.240;16.478;2023-03-14T03:40:43;98136.84;;;6.98;62.99
19594;BME280;9944;48.240;16.478;2023-03-14T03:44:47;98134.25;;;6.95;63.08
19594;BME280;9944;48.240;16.478;2023-03-14T03:48:55;98128.13;;;6.98;63.30
19594;BME280;9944;48.240;16.478;2023-03-14T03:53:00;98116.66;;;7.02;63.20
19594;BME280;9944;48.240;16.478;2023-03-14T03:57:03;98114.84;;;7.05;62.99
19594;BME280;9944;48.240;16.478;2023-03-14T04:01:09;98107.91;;;7.04;63.28
19594;BME280;9944;48.240;16.478;2023-03-14T04:05:14;98114.03;;;7.03;63.10
19594;BME280;9944;48.240;16.478;2023-03-14T04:09:24;98118.41;;;7.03;63.34
19594;BME280;9944;48.240;16.478;2023-03-14T04:13:46;98102.69;;;7.01;63.26
19594;BME280;9944;48.240;16.478;2023-03-14T04:17:49;98121.09;;;6.98;63.37
19594;BME280;9944;48.240;16.478;2023-03-14T04:21:54;98107.19;;;6.93;63.83
19594;BME280;9944;48.240;16.478;2023-03-14T04:26:00;98121.25;;;6.89;64.23
19594;BME280;9944;48.240;16.478;2023-03-14T04:30:07;98134.47;;;6.83;63.69
19594;BME280;9944;48.240;16.478;2023-03-14T04:34:41;98144.13;;;6.81;63.95
19594;BME280;9944;48.240;16.478;2023-03-14T04:38:45;98149.38;;;6.79;63.61
19594;BME280;9944;48.240;16.478;2023-03-14T04:42:52;98142.38;;;6.80;63.88
19594;BME280;9944;48.240;16.478;2023-03-14T04:46:56;98147.63;;;6.80;63.87
19594;BME280;9944;48.240;16.478;2023-03-14T04:51:00;98163.41;;;6.77;63.91
19594;BME280;9944;48.240;16.478;2023-03-14T04:55:08;98134.66;;;6.71;63.82
19594;BME280;9944;48.240;16.478;2023-03-14T04:59:11;98134.69;;;6.67;64.08
19594;BME280;9944;48.240;16.478;2023-03-14T05:03:17;98142.56;;;6.67;63.99
19594;BME280;9944;48.240;16.478;2023-03-14T05:07:32;98148.72;;;6.66;64.25
19594;BME280;9944;48.240;16.478;2023-03-14T05:11:52;98148.69;;;6.68;64.40
19594;BME280;9944;48.240;16.478;2023-03-14T05:16:07;98155.63;;;6.71;64.56
19594;BME280;9944;48.240;16.478;2023-03-14T05:20:45;98143.47;;;6.66;64.60
19594;BME280;9944;48.240;16.478;2023-03-14T05:25:17;98144.34;;;6.65;64.64
19594;BME280;9944;48.240;16.478;2023-03-14T05:29:40;98162.81;;;6.59;64.78
19594;BME280;9944;48.240;16.478;2023-03-14T05:33:52;98183.84;;;6.53;64.82
19594;BME280;9944;48.240;16.478;2023-03-14T05:38:06;98211.84;;;6.51;64.97
19594;BME280;9944;48.240;16.478;2023-03-14T05:42:16;98216.13;;;6.55;65.03
19594;BME280;9944;48.240;16.478;2023-03-14T05:46:40;98206.47;;;6.59;64.96
19594;BME280;9944;48.240;16.478;2023-03-14T05:51:06;98203.81;;;6.63;65.25
19594;BME280;9944;48.240;16.478;2023-03-14T05:55:27;98208.94;;;6.70;65.19
19594;BME280;9944;48.240;16.478;2023-03-14T05:59:43;98214.09;;;6.77;65.29
19594;BME280;9944;48.240;16.478;2023-03-14T06:04:11;98220.16;;;6.81;65.18
19594;BME280;9944;48.240;16.478;2023-03-14T06:08:15;98234.88;;;6.91;65.34
19594;BME280;9944;48.240;16.478;2023-03-14T06:12:20;98234.75;;;6.99;65.15
19594;BME280;9944;48.240;16.478;2023-03-14T06:16:24;98242.59;;;7.02;65.31
19594;BME280;9944;48.240;16.478;2023-03-14T06:20:30;98233.88;;;7.01;nan
19594;BME280;9944;48.240;16.478;2023-03-14T06:24:35;98230.28;;;7.05;65.53
19594;BME280;9944;48.240;16.478;2023-03-14T06:28:39;98238.09;;;7.10;65.05
19594;BME280;9944;48.240;16.478;2023-03-14T06:32:43;98241.59;;;7.11;64.64
19594;BME280;9944;48.240;16.478;2023-03-14T06:36:50;98225.78;;;7.15;64.54
19594;BME280;9944;48.240;16.478;2023-03-14T06:40:53;98235.31;;;7.21;64.36
19594;BME280;9944;48.240;16.478;2023-03-14T06:45:09;98234.31;;;7.28;64.26
19594;BME280;9944;48.240;16.478;2023-03-14T06:49:12;98229.81;;;7.38;63.96
19594;BME280;9944;48.240;16.478;2023-03-14T06:53:17;98203.41;;;7.46;63.93
19594;BME280;9944;48.240;16.478;2023-03-14T06:57:21;98204.06;;;7.60;63.48
19594;BME280;9944;48.240;16.478;2023-03-14T07:01:26;98221.38;;;7.70;63.37
19594;BME280;9944;48.240;16.478;2023-03-14T07:05:37;98208.13;;;7.76;62.64
19594;BME280;9944;48.240;16.478;2023-03-14T07:09:43;98229.84;;;7.86;62.83
19594;BME280;9944;48.240;16.478;2023-03-14T07:13:47;98214.78;;;7.96;62.95
19594;BME280;9944;48.240;16.478;2023-03-14T07:17:50;98218.88;;;8.11;62.50
19594;BME280;9944;48.240;16.478;2023-03-14T07:21:56;98226.50;;;8.25;62.77
19594;BME280;9944;48.240;16.478;2023-03-14T07:26:04;98248.97;;;8.41;62.34
19594;BME280;9944;48.240;16.478;2023-03-14T07:30:10;98247.88;;;8.51;62.63
19594;BME280;9944;48.240;16.478;2023-03-14T07:34:13;98238.09;;;8.60;61.91
19594;BME280;9944;48.240;16.478;2023-03-14T07:38:18;98246.75;;;8.65;61.70
19594;BME280;9944;48.240;16.478;2023-03-14T07:42:45;98243.09;;;8.72;61.62
19594;BME280;9944;48.240;16.478;2023-03-14T07:46:51;98247.34;;;8.78;61.46
19594;BME280;9944;48.240;16.478;2023-03-14T07:50:54;98241.16;;;8.80;61.25
19594;BME280;9944;48.240;16.478;2023-03-14T07:54:58;98234.94;;;8.83;60.84
19594;BME280;9944;48.240;16.478;2023-03-14T07:59:02;98237.50;;;8.87;60.59
19594;BME280;9944;48.240;16.478;2023-03-14T08:03:06;98240.06;;;8.90;60.52
19594;BME280;9944;48.240;16.478;2023-03-14T08:07:11;98230.34;;;8.92;60.63
19594;BME280;9944;48.240;16.478;2023-03-14T08:11:15;98232.00;;;8.97;60.95
19594;BME280;9944;48.240;16.478;2023-03-14T08:15:20;98226.63;;;9.03;60.75
19594;BME280;9944;48.240;16.478;2023-03-14T08:19:23;98215.94;;;9.09;61.01
19594;BME280;9944;48.240;16.478;2023-03-14T08:23:26;98218.44;;;9.15;60.89
19594;BME280;9944;48.240;16.478;2023-03-14T08:27:29;98218.25;;;9.23;61.20
19594;BME280;9944;48.240;16.478;2023-03-14T08:31:34;98218.06;;;9.30;60.94
19594;BME280;9944;48.240;16.478;2023-03-14T08:35:37;98201.22;;;9.38;61.04
19594;BME280;9944;48.240;16.478;2023-03-14T08:39:40;98228.19;;;9.47;61.31
19594;BME280;9944;48.240;16.478;2023-03-14T08:43:44;98221.75;;;9.59;61.33
19594;BME280;9944;48.240;16.478;2023-03-14T08:47:48;98208.38;;;9.67;61.41
19594;BME280;9944;48.240;16.478;2023-03-14T08:51:51;98207.28;;;9.76;60.93
19594;BME280;9944;48.240;16.478;2023-03-14T08:55:54;98212.38;;;9.82;60.42
19594;BME280;9944;48.240;16.478;2023-03-14T08:59:58;98205.22;;;9.87;60.08
19594;BME280;9944;48.240;16.478;2023-03-14T09:04:02;98188.47;;;9.91;60.23
19594;BME280;9944;48.240;16.478;2023-03-14T09:08:06;98192.72;;;9.95;59.99
19594;BME280;9944;48.240;16.478;2023-03-14T09:12:09;98199.63;;;9.99;60.13
19594;BME280;9944;48.240;16.478;2023-03-14T09:16:12;98186.34;;;10.04;59.68
19594;BME280;9944;48.240;16.478;2023-03-14T09:20:20;98184.47;;;10.08;60.08
19594;BME280;9944;48.240;16.478;2023-03-14T09:24:25;98199.31;;;10.12;59.82
19594;BME280;9944;48.240;16.478;2023-03-14T09:28:28;98217.69;;;10.15;59.39
19594;BME280;9944;48.240;16.478;2023-03-14T09:32:32;98205.41;;;10.14;59.53
19594;BME280;9944;48.240;16.478;2023-03-14T09:36:36;98208.06;;;10.14;59.56
19594;BME280;9944;48.240;16.478;2023-03-14T09:40:41;98203.63;;;10.14;59.34
19594;BME280;9944;48.240;16.478;2023-03-14T09:44:53;98206.22;;;10.16;59.40
19594;BME280;9944;48.240;16.478;2023-03-14T09:48:56;98208.84;;;10.17;59.44
19594;BME280;9944;48.240;16.478;2023-03-14T09:53:04;98220.16;;;10.21;59.88
19594;BME280;9944;48.240;16.478;2023-03-14T09:57:12;98212.06;;;10.27;59.78
19594;BME280;9944;48.240;16.478;2023-03-14T10:01:22;98214.53;;;10.33;60.06
19594;BME280;9944;48.240;16.478;2023-03-14T10:05:26;98210.00;;;10.38;59.93
19594;BME280;9944;48.240;16.478;2023-03-14T10:09:33;98210.81;;;10.40;60.08
19594;BME280;9944;48.240;16.478;2023-03-14T10:13:47;98216.00;;;10.43;60.11
19594;BME280;9944;48.240;16.478;2023-03-14T10:17:51;98216.00;;;10.43;59.85
19594;BME280;9944;48.240;16.478;2023-03-14T10:21:54;98198.44;;;10.42;59.82
19594;BME280;9944;48.240;16.478;2023-03-14T10:26:17;98202.84;;;10.42;60.23
19594;BME280;9944;48.240;16.478;2023-03-14T10:30:29;98186.06;;;10.44;60.34
19594;BME280;9944;48.240;16.478;2023-03-14T10:34:34;98191.16;;;10.51;60.58
19594;BME280;9944;48.240;16.478;2023-03-14T10:38:38;98203.38;;;10.53;60.77
19594;BME280;9944;48.240;16.478;2023-03-14T10:42:43;98204.19;;;10.57;60.72
19594;BME280;9944;48.240;16.478;2023-03-14T10:46:55;98207.66;;;10.59;60.65
19594;BME280;9944;48.240;16.478;2023-03-14T10:51:06;98198.72;;;10.63;60.93
19594;BME280;9944;48.240;16.478;2023-03-14T10:55:11;98208.09;;;10.73;60.70
19594;BME280;9944;48.240;16.478;2023-03-14T10:59:16;98195.53;;;10.81;60.85
19594;BME280;9944;48.240;16.478;2023-03-14T11:03:20;98202.25;;;10.92;61.37
19594;BME280;9944;48.240;16.478;2023-03-14T11:07:27;98198.59;;;10.96;61.33
19594;BME280;9944;48.240;16.478;2023-03-14T11:11:33;98195.06;;;10.97;61.40
19594;BME280;9944;48.240;16.478;2023-03-14T11:15:41;98200.34;;;10.97;61.85
19594;BME280;9944;48.240;16.478;2023-03-14T11:19:53;98198.50;;;10.99;60.68
19594;BME280;9944;48.240;16.478;2023-03-14T11:24:19;98202.84;;;11.00;60.33
19594;BME280;9944;48.240;16.478;2023-03-14T11:28:29;98205.50;;;11.00;60.04
19594;BME280;9944;48.240;16.478;2023-03-14T11:32:43;98211.75;;;10.97;58.95
19594;BME280;9944;48.240;16.478;2023-03-14T11:36:51;98210.13;;;10.93;58.53
19594;BME280;9944;48.240;16.478;2023-03-14T11:40:57;98202.25;;;10.92;58.26
19594;BME280;9944;48.240;16.478;2023-03-14T11:45:01;98217.38;;;10.87;58.06
19594;BME280;9944;48.240;16.478;2023-03-14T11:49:13;98215.69;;;10.84;57.45
19594;BME280;9944;48.240;16.478;2023-03-14T11:53:23;98221.94;;;10.81;57.56
19594;BME280;9944;48.240;16.478;2023-03-14T11:57:29;98217.59;;;10.79;57.45
19594;BME280;9944;48.240;16.478;2023-03-14T12:01:44;98219.53;;;10.72;57.46
19594;BME280;9944;48.240;16.478;2023-03-14T12:06:02;98211.81;;;10.66;57.70
19594;BME280;9944;48.240;16.478;2023-03-14T12:10:12;98208.38;;;10.64;57.92
19594;BME280;9944;48.240;16.478;2023-03-14T12:14:22;98212.84;;;10.62;57.97
19594;BME280;9944;48.240;16.478;2023-03-14T12:18:27;98208.53;;;10.58;58.28
19594;BME280;9944;48.240;16.478;2023-03-14T12:22:34;98205.09;;;10.56;58.16
19594;BME280;9944;48.240;16.478;2023-03-14T12:26:46;98210.53;;;10.50;58.51
19594;BME280;9944;48.240;16.478;2023-03-14T12:30:51;98211.50;;;10.47;58.24
19594;BME280;9944;48.240;16.478;2023-03-14T12:34:54;98207.16;;;10.44;58.74
19594;BME280;9944;48.240;16.478;2023-03-14T12:39:08;98204.63;;;10.41;58.81
19594;BME280;9944;48.240;16.478;2023-03-14T12:43:25;98214.38;;;10.39;58.59
19594;BME280;9944;48.240;16.478;2023-03-14T12:47:49;98217.94;;;10.37;58.83
19594;BME280;9944;48.240;16.478;2023-03-14T12:51:58;98205.72;;;10.34;58.61
19594;BME280;9944;48.240;16.478;2023-03-14T12:56:22;98199.59;;;10.32;58.97
19594;BME280;9944;48.240;16.478;2023-03-14T13:00:31;98205.84;;;10.30;59.13
19594;BME280;9944;48.240;16.478;2023-03-14T13:04:37;98205.97;;;10.25;59.04
19594;BME280;9944;48.240;16.478;2023-03-14T13:08:46;98213.06;;;10.23;59.02
19594;BME280;9944;48.240;16.478;2023-03-14T13:12:52;98199.06;;;10.21;59.08
19594;BME280;9944;48.240;16.478;2023-03-14T13:16:59;98192.03;;;10.20;59.07
19594;BME280;9944;48.240;16.478;2023-03-14T13:21:24;98207.06;;;10.18;58.95
19594;BME280;9944;48.240;16.478;2023-03-14T13:25:33;98202.78;;;10.14;59.25
19594;BME280;9944;48.240;16.478;2023-03-14T13:29:38;98207.16;;;10.13;59.18
19594;BME280;9944;48.240;16.478;2023-03-14T13:33:41;98216.00;;;10.12;59.31
19594;BME280;9944;48.240;16.478;2023-03-14T13:37:44;98225.69;;;10.12;58.97
19594;BME280;9944;48.240;16.478;2023-03-14T13:41:47;98221.38;;;10.08;59.06
19594;BME280;9944;48.240;16.478;2023-03-14T13:45:56;98230.06;;;10.11;59.29
19594;BME280;9944;48.240;16.478;2023-03-14T13:49:59;98230.13;;;10.10;59.32
19594;BME280;9944;48.240;16.478;2023-03-14T13:54:03;98231.91;;;10.09;59.21
19594;BME280;9944;48.240;16.478;2023-03-14T13:58:18;98231.94;;;10.08;59.25
19594;BME280;9944;48.240;16.478;2023-03-14T14:02:24;98233.72;;;10.07;59.35
19594;BME280;9944;48.240;16.478;2023-03-14T14:06:31;98234.56;;;10.08;59.29
19594;BME280;9944;48.240;16.478;2023-03-14T14:10:37;98229.22;;;10.11;59.37
19594;BME280;9944;48.240;16.478;2023-03-14T14:14:43;98245.78;;;10.16;59.40
19594;BME280;9944;48.240;16.478;2023-03-14T14:18:50;98240.44;;;10.19;59.66
19594;BME280;9944;48.240;16.478;2023-03-14T14:22:55;98248.41;;;10.16;59.90
19594;BME280;9944;48.240;16.478;2023-03-14T14:27:00;98239.78;;;10.11;60.43
19594;BME280;9944;48.240;16.478;2023-03-14T14:31:06;98238.13;;;10.07;60.24
19594;BME280;9944;48.240;16.478;2023-03-14T14:35:25;98241.59;;;10.09;60.99
19594;BME280;9944;48.240;16.478;2023-03-14T14:39:29;98238.91;;;10.10;61.35
19594;BME280;9944;48.240;16.478;2023-03-14T14:43:36;98227.41;;;10.13;61.74
19594;BME280;9944;48.240;16.478;2023-03-14T14:47:49;98235.31;;;10.13;62.37
19594;BME280;9944;48.240;16.478;2023-03-14T14:52:00;98235.31;;;10.13;62.72
19594;BME280;9944;48.240;16.478;2023-03-14T14:56:07;98231.81;;;10.12;62.33
19594;BME280;9944;48.240;16.478;2023-03-14T15:00:18;98227.41;;;10.13;62.38
19594;BME280;9944;48.240;16.478;2023-03-14T15:04:22;98243.22;;;10.13;62.03
19594;BME280;9944;48.240;16.478;2023-03-14T15:08:27;98219.56;;;10.10;62.66
19594;BME280;9944;48.240;16.478;2023-03-14T15:12:30;98222.31;;;10.07;62.19
19594;BME280;9944;48.240;16.478;2023-03-14T15:16:33;98220.56;;;10.05;62.42
19594;BME280;9944;48.240;16.478;2023-03-14T15:20:37;98215.31;;;10.05;62.67
19594;BME280;9944;48.240;16.478;2023-03-14T15:24:41;98203.91;;;10.05;62.59
19594;BME280;9944;48.240;16.478;2023-03-14T15:28:44;98205.56;;;10.08;62.36
19594;BME280;9944;48.240;16.478;2023-03-14T15:32:48;98203.78;;;10.08;62.30
19594;BME280;9944;48.240;16.478;2023-03-14T15:36:51;98207.31;;;10.09;63.48
19594;BME280;9944;48.240;16.478;2023-03-14T15:40:56;98192.38;;;10.08;63.86
19594;BME280;9944;48.240;16.478;2023-03-14T15:44:59;98185.63;;;9.97;64.34
19594;BME280;9944;48.240;16.478;2023-03-14T15:49:02;98180.56;;;9.91;64.79
19594;BME280;9944;48.240;16.478;2023-03-14T15:53:05;98198.22;;;9.86;65.10
19594;BME280;9944;48.240;16.478;2023-03-14T15:57:11;98197.34;;;9.85;64.87
19594;BME280;9944;48.240;16.478;2023-03-14T16:01:15;98199.94;;;9.87;65.03
19594;BME280;9944;48.240;16.478;2023-03-14T16:05:18;98213.03;;;9.90;65.34
19594;BME280;9944;48.240;16.478;2023-03-14T16:09:22;98191.13;;;9.88;65.55
19594;BME280;9944;48.240;16.478;2023-03-14T16:13:27;98206.09;;;9.87;65.91
19594;BME280;9944;48.240;16.478;2023-03-14T16:17:31;98212.19;;;9.91;66.65
19594;BME280;9944;48.240;16.478;2023-03-14T16:21:34;98203.28;;;9.95;67.04
19594;BME280;9944;48.240;16.478;2023-03-14T16:25:39;98219.91;;;9.97;67.25
19594;BME280;9944;48.240;16.478;2023-03-14T16:29:43;98224.13;;;10.03;67.55
19594;BME280;9944;48.240;16.478;2023-03-14T16:33:49;98218.78;;;10.06;67.86
19594;BME280;9944;48.240;16.478;2023-03-14T16:37:52;98219.69;;;10.07;67.72
19594;BME280;9944;48.240;16.478;2023-03-14T16:41:55;98224.88;;;10.08;67.89
19594;BME280;9944;48.240;16.478;2023-03-14T16:46:01;98232.88;;;10.07;67.71
19594;BME280;9944;48.240;16.478;2023-03-14T16:50:05;98240.69;;;10.08;67.60
19594;BME280;9944;48.240;16.478;2023-03-14T16:54:08;98253.00;;;10.09;67.88
19594;BME280;9944;48.240;16.478;2023-03-14T16:58:12;98247.72;;;10.09;67.86
19594;BME280;9944;48.240;16.478;2023-03-14T17:02:16;98255.66;;;10.08;67.97
19594;BME280;9944;48.240;16.478;2023-03-14T17:06:21;98260.94;;;10.08;68.06
19594;BME280;9944;48.240;16.478;2023-03-14T17:10:25;98263.56;;;10.08;68.33
19594;BME280;9944;48.240;16.478;2023-03-14T17:14:28;98279.47;;;10.04;68.15
19594;BME280;9944;48.240;16.478;2023-03-14T17:18:33;98273.44;;;9.99;68.49
19594;BME280;9944;48.240;16.478;2023-03-14T17:22:36;98289.25;;;9.99;68.38
19594;BME280;9944;48.240;16.478;2023-03-14T17:26:39;98297.25;;;9.98;68.58
19594;BME280;9944;48.240;16.478;2023-03-14T17:30:42;98293.75;;;9.96;68.37
19594;BME280;9944;48.240;16.478;2023-03-14T17:34:46;98286.84;;;9.92;68.84
19594;BME280;9944;48.240;16.478;2023-03-14T17:38:49;98289.56;;;9.87;69.02
19594;BME280;9944;48.240;16.478;2023-03-14T17:42:55;98290.53;;;9.83;68.64
19594;BME280;9944;48.240;16.478;2023-03-14T17:46:58;98292.41;;;9.79;69.43
19594;BME280;9944;48.240;16.478;2023-03-14T17:51:03;98295.97;;;9.77;69.57
19594;BME280;9944;48.240;16.478;2023-03-14T17:55:07;98303.94;;;9.75;69.49
19594;BME280;9944;48.240;16.478;2023-03-14T17:59:10;98320.56;;;9.77;69.54
19594;BME280;9944;48.240;16.478;2023-03-14T18:03:13;98322.28;;;9.78;69.38
19594;BME280;9944;48.240;16.478;2023-03-14T18:07:18;98348.72;;;9.75;69.43
19594;BME280;9944;48.240;16.478;2023-03-14T18:11:22;98345.22;;;9.73;69.30
19594;BME280;9944;48.240;16.478;2023-03-14T18:15:26;98339.25;;;9.66;69.58
19594;BME280;9944;48.240;16.478;2023-03-14T18:19:29;98349.16;;;9.57;69.48
19594;BME280;9944;48.240;16.478;2023-03-14T18:23:34;98351.91;;;9.50;69.77
19594;BME280;9944;48.240;16.478;2023-03-14T18:27:37;98353.78;;;9.45;69.64
19594;BME280;9944;48.240;16.478;2023-03-14T18:31:40;98368.59;;;9.51;69.64
19594;BME280;9944;48.240;16.478;2023-03-14T18:35:43;98378.19;;;9.54;69.90
19594;BME280;9944;48.240;16.478;2023-03-14T18:39:48;98394.00;;;9.54;69.79
19594;BME280;9944;48.240;16.478;2023-03-14T18:43:51;98400.25;;;9.49;69.92
19594;BME280;9944;48.240;16.478;2023-03-14T18:47:55;98395.94;;;9.44;69.94
19594;BME280;9944;48.240;16.478;2023-03-14T18:51:58;98407.56;;;9.35;69.67
19594;BME280;9944;48.240;16.478;2023-03-14T18:56:03;98424.31;;;9.33;69.86
19594;BME280;9944;48.240;16.478;2023-03-14T19:00:08;98444.50;;;9.32;69.95
19594;BME280;9944;48.240;16.478;2023-03-14T19:04:13;98444.59;;;9.27;69.50
19594;BME280;9944;48.240;16.478;2023-03-14T19:08:16;98450.75;;;9.26;69.43
19594;BME280;9944;48.240;16.478;2023-03-14T19:12:21;98459.41;;;9.31;69.27
19594;BME280;9944;48.240;16.478;2023-03-14T19:16:24;98462.78;;;9.40;68.29
19594;BME280;9944;48.240;16.478;2023-03-14T19:20:28;98473.19;;;9.46;67.92
19594;BME280;9944;48.240;16.478;2023-03-14T19:24:32;98484.59;;;9.46;67.84
19594;BME280;9944;48.240;16.478;2023-03-14T19:28:37;98478.56;;;9.40;67.36
19594;BME280;9944;48.240;16.478;2023-03-14T19:32:40;98484.81;;;9.36;67.43
19594;BME280;9944;48.240;16.478;2023-03-14T19:36:43;98496.28;;;9.31;67.43
19594;BME280;9944;48.240;16.478;2023-03-14T19:40:46;98499.06;;;9.25;67.29
19594;BME280;9944;48.240;16.478;2023-03-14T19:44:52;98507.00;;;9.22;67.32
19594;BME280;9944;48.240;16.478;2023-03-14T19:48:57;98502.72;;;9.18;67.37
19594;BME280;9944;48.240;16.478;2023-03-14T19:53:00;98498.38;;;9.14;67.13
19594;BME280;9944;48.240;16.478;2023-03-14T19:57:05;98500.19;;;9.12;66.99
19594;BME280;9944;48.240;16.478;2023-03-14T20:01:09;98521.28;;;9.09;66.76
19594;BME280;9944;48.240;16.478;2023-03-14T20:05:13;98506.41;;;9.08;66.31
19594;BME280;9944;48.240;16.478;2023-03-14T20:09:17;98522.25;;;9.05;66.07
19594;BME280;9944;48.240;16.478;2023-03-14T20:13:20;98535.41;;;9.05;65.39
19594;BME280;9944;48.240;16.478;2023-03-14T20:17:25;98546.84;;;9.02;65.27
19594;BME280;9944;48.240;16.478;2023-03-14T20:21:30;98567.06;;;9.00;65.25
19594;BME280;9944;48.240;16.478;2023-03-14T20:25:33;98563.59;;;9.00;65.09
19594;BME280;9944;48.240;16.478;2023-03-14T20:29:38;98568.84;;;9.00;64.78
19594;BME280;9944;48.240;16.478;2023-03-14T20:33:42;98575.06;;;8.97;64.49
19594;BME280;9944;48.240;16.478;2023-03-14T20:37:45;98582.06;;;8.95;63.87
19594;BME280;9944;48.240;16.478;2023-03-14T20:41:48;98583.00;;;8.92;64.42
19594;BME280;9944;48.240;16.478;2023-03-14T20:45:52;98572.56;;;8.86;63.92
19594;BME280;9944;48.240;16.478;2023-03-14T20:49:57;98593.69;;;8.83;62.92
19594;BME280;9944;48.240;16.478;2023-03-14T20:54:03;98596.38;;;8.80;62.03
19594;BME280;9944;48.240;16.478;2023-03-14T20:58:06;98596.47;;;8.74;60.39
19594;BME280;9944;48.240;16.478;2023-03-14T21:02:09;98592.97;;;8.73;59.29
19594;BME280;9944;48.240;16.478;2023-03-14T21:06:14;98604.38;;;8.72;59.41
19594;BME280;9944;48.240;16.478;2023-03-14T21:10:17;98630.78;;;8.68;59.25
19594;BME280;9944;48.240;16.478;2023-03-14T21:14:21;98617.69;;;8.63;58.48
19594;BME280;9944;48.240;16.478;2023-03-14T21:18:25;98615.09;;;8.59;58.46
19594;BME280;9944;48.240;16.478;2023-03-14T21:22:30;98620.44;;;8.54;58.23
19594;BME280;9944;48.240;16.478;2023-03-14T21:26:33;98630.16;;;8.49;58.14
19594;BME280;9944;48.240;16.478;2023-03-14T21:30:37;98626.72;;;8.45;58.40
19594;BME280;9944;48.240;16.478;2023-03-14T21:34:40;98647.78;;;8.42;58.09
19594;BME280;9944;48.240;16.478;2023-03-14T21:38:45;98633.81;;;8.39;57.30
19594;BME280;9944;48.240;16.478;2023-03-14T21:42:49;98653.19;;;8.33;56.80
19594;BME280;9944;48.240;16.478;2023-03-14T21:46:53;98654.06;;;8.29;56.32
19594;BME280;9944;48.240;16.478;2023-03-14T21:50:57;98634.81;;;8.27;55.52
19594;BME280;9944;48.240;16.478;2023-03-14T21:55:01;98657.69;;;8.20;55.34
19594;BME280;9944;48.240;16.478;2023-03-14T21:59:05;98634.16;;;8.11;55.04